Portada
METAR-TAF:

METAR-TAF

Aeroports :

Imphal, Índia

latitud: 24-45-36N, longitud: 93-53-48E, altitud: 774 m

Observació

L'informe es va fer fa 34 minuts, a les 09:00 UTC
Vent 6 kt del Sud-Oest
Temperatura 25°C
Humitat 50%
Pressió 1012 hPa
Visibilitat: 4000 m
Escasses núvols a una alçada de 1000 ft
Núvols disperses a una alçada de 1800 ft
calitja

METAR: VEIM 170900Z 22006KT 4000 HZ FEW010 SCT018 25/14 Q1012 NOSIG

Hora: 15:04 (09:34 UTC)


TAF: manca

Observacions i pronòstics meteorològics de més de 4000 aeroports (METAR i TAF).

Les estacions disponibles són els punts grocs i vermells al mapa.

Posi el ratolí al punt desitjat per veure el nom de l'estació.

Feu clic per veure les observacions i els pronòstics meteorològics.

Per canviar el mapa: feu clic els botons verds amb una creu de color negre per apropar; al botó verd amb un guió per allunyar la imatge; o en les fletxes verdes per a mapes adjacents.


METAR-TAF: